sensor_id;sensor_type;location;lat;lon;timestamp;P1;durP1;ratioP1;P2;durP2;ratioP2
75823;SDS011;64457;51.976;9.834;2023-01-29T00:01:59;33.47;;;15.90;;
75823;SDS011;64457;51.976;9.834;2023-01-29T00:04:27;31.98;;;14.68;;
75823;SDS011;64457;51.976;9.834;2023-01-29T00:06:55;26.92;;;15.32;;
75823;SDS011;64457;51.976;9.834;2023-01-29T00:09:23;28.92;;;15.70;;
75823;SDS011;64457;51.976;9.834;2023-01-29T00:11:50;28.85;;;16.35;;
75823;SDS011;64457;51.976;9.834;2023-01-29T00:14:18;26.67;;;14.70;;
75823;SDS011;64457;51.976;9.834;2023-01-29T00:16:46;31.60;;;15.20;;
75823;SDS011;64457;51.976;9.834;2023-01-29T00:19:15;26.40;;;14.90;;
75823;SDS011;64457;51.976;9.834;2023-01-29T00:21:43;26.02;;;13.98;;
75823;SDS011;64457;51.976;9.834;2023-01-29T00:24:11;26.38;;;13.77;;
75823;SDS011;64457;51.976;9.834;2023-01-29T00:26:38;24.52;;;14.40;;
75823;SDS011;64457;51.976;9.834;2023-01-29T00:29:07;25.25;;;14.13;;
75823;SDS011;64457;51.976;9.834;2023-01-29T00:31:34;22.52;;;13.02;;
75823;SDS011;64457;51.976;9.834;2023-01-29T00:34:02;31.00;;;14.48;;
75823;SDS011;64457;51.976;9.834;2023-01-29T00:36:31;25.83;;;14.43;;
75823;SDS011;64457;51.976;9.834;2023-01-29T00:38:58;23.90;;;14.70;;
75823;SDS011;64457;51.976;9.834;2023-01-29T00:41:35;25.05;;;14.10;;
75823;SDS011;64457;51.976;9.834;2023-01-29T00:44:20;27.25;;;14.93;;
75823;SDS011;64457;51.976;9.834;2023-01-29T00:47:05;27.98;;;14.27;;
75823;SDS011;64457;51.976;9.834;2023-01-29T00:49:53;29.48;;;14.00;;
75823;SDS011;64457;51.976;9.834;2023-01-29T00:52:23;26.58;;;12.98;;
75823;SDS011;64457;51.976;9.834;2023-01-29T00:54:50;22.88;;;12.07;;
75823;SDS011;64457;51.976;9.834;2023-01-29T00:57:19;28.08;;;14.15;;
75823;SDS011;64457;51.976;9.834;2023-01-29T00:59:47;25.98;;;13.43;;
75823;SDS011;64457;51.976;9.834;2023-01-29T01:02:14;29.15;;;14.73;;
75823;SDS011;64457;51.976;9.834;2023-01-29T01:04:59;24.77;;;12.73;;
75823;SDS011;64457;51.976;9.834;2023-01-29T01:07:28;27.15;;;13.57;;
75823;SDS011;64457;51.976;9.834;2023-01-29T01:09:56;27.45;;;13.60;;
75823;SDS011;64457;51.976;9.834;2023-01-29T01:12:41;26.13;;;14.00;;
75823;SDS011;64457;51.976;9.834;2023-01-29T01:15:09;27.50;;;15.10;;
75823;SDS011;64457;51.976;9.834;2023-01-29T01:17:36;30.10;;;15.38;;
75823;SDS011;64457;51.976;9.834;2023-01-29T01:20:04;26.92;;;14.50;;
75823;SDS011;64457;51.976;9.834;2023-01-29T01:22:34;24.73;;;13.23;;
75823;SDS011;64457;51.976;9.834;2023-01-29T01:25:02;26.15;;;14.00;;
75823;SDS011;64457;51.976;9.834;2023-01-29T01:27:30;26.63;;;14.20;;
75823;SDS011;64457;51.976;9.834;2023-01-29T01:29:59;27.48;;;14.88;;
75823;SDS011;64457;51.976;9.834;2023-01-29T01:32:27;27.15;;;13.63;;
75823;SDS011;64457;51.976;9.834;2023-01-29T01:34:54;27.65;;;14.02;;
75823;SDS011;64457;51.976;9.834;2023-01-29T01:37:22;27.98;;;14.05;;
75823;SDS011;64457;51.976;9.834;2023-01-29T01:39:51;23.90;;;13.65;;
75823;SDS011;64457;51.976;9.834;2023-01-29T01:42:22;25.75;;;14.70;;
75823;SDS011;64457;51.976;9.834;2023-01-29T01:44:57;22.58;;;12.77;;
75823;SDS011;64457;51.976;9.834;2023-01-29T01:47:29;28.42;;;14.10;;
75823;SDS011;64457;51.976;9.834;2023-01-29T01:50:05;21.30;;;11.85;;
75823;SDS011;64457;51.976;9.834;2023-01-29T01:52:38;27.75;;;13.50;;
75823;SDS011;64457;51.976;9.834;2023-01-29T01:55:14;25.90;;;13.63;;
75823;SDS011;64457;51.976;9.834;2023-01-29T01:57:47;23.60;;;12.77;;
75823;SDS011;64457;51.976;9.834;2023-01-29T02:00:22;28.50;;;13.98;;
75823;SDS011;64457;51.976;9.834;2023-01-29T02:02:52;22.90;;;12.95;;
75823;SDS011;64457;51.976;9.834;2023-01-29T02:05:38;25.73;;;13.55;;
75823;SDS011;64457;51.976;9.834;2023-01-29T02:08:26;28.13;;;13.38;;
75823;SDS011;64457;51.976;9.834;2023-01-29T02:11:20;26.85;;;14.57;;
75823;SDS011;64457;51.976;9.834;2023-01-29T02:13:48;25.52;;;13.55;;
75823;SDS011;64457;51.976;9.834;2023-01-29T02:16:18;25.38;;;13.60;;
75823;SDS011;64457;51.976;9.834;2023-01-29T02:18:46;26.20;;;13.30;;
75823;SDS011;64457;51.976;9.834;2023-01-29T02:24:20;25.67;;;13.77;;
75823;SDS011;64457;51.976;9.834;2023-01-29T02:27:23;22.95;;;12.27;;
75823;SDS011;64457;51.976;9.834;2023-01-29T02:30:10;28.73;;;14.25;;
75823;SDS011;64457;51.976;9.834;2023-01-29T02:32:46;23.52;;;13.35;;
75823;SDS011;64457;51.976;9.834;2023-01-29T02:35:24;30.73;;;14.93;;
75823;SDS011;64457;51.976;9.834;2023-01-29T02:37:58;26.80;;;13.98;;
75823;SDS011;64457;51.976;9.834;2023-01-29T02:40:38;24.25;;;12.77;;
75823;SDS011;64457;51.976;9.834;2023-01-29T02:43:14;26.85;;;14.85;;
75823;SDS011;64457;51.976;9.834;2023-01-29T02:45:55;27.00;;;13.43;;
75823;SDS011;64457;51.976;9.834;2023-01-29T02:48:36;26.98;;;14.48;;
75823;SDS011;64457;51.976;9.834;2023-01-29T02:51:10;26.77;;;14.52;;
75823;SDS011;64457;51.976;9.834;2023-01-29T02:53:47;26.50;;;13.98;;
75823;SDS011;64457;51.976;9.834;2023-01-29T02:56:20;27.70;;;13.63;;
75823;SDS011;64457;51.976;9.834;2023-01-29T02:58:56;24.45;;;13.50;;
75823;SDS011;64457;51.976;9.834;2023-01-29T03:01:30;23.65;;;13.38;;
75823;SDS011;64457;51.976;9.834;2023-01-29T03:04:03;29.60;;;13.98;;
75823;SDS011;64457;51.976;9.834;2023-01-29T03:06:37;27.00;;;13.90;;
75823;SDS011;64457;51.976;9.834;2023-01-29T03:09:10;27.65;;;14.98;;
75823;SDS011;64457;51.976;9.834;2023-01-29T03:11:45;25.35;;;13.80;;
75823;SDS011;64457;51.976;9.834;2023-01-29T03:14:18;24.80;;;13.63;;
75823;SDS011;64457;51.976;9.834;2023-01-29T03:17:13;27.20;;;13.75;;
75823;SDS011;64457;51.976;9.834;2023-01-29T03:19:42;27.05;;;14.30;;
75823;SDS011;64457;51.976;9.834;2023-01-29T03:22:12;24.88;;;13.40;;
75823;SDS011;64457;51.976;9.834;2023-01-29T03:24:43;27.65;;;14.32;;
75823;SDS011;64457;51.976;9.834;2023-01-29T03:27:32;29.85;;;14.27;;
75823;SDS011;64457;51.976;9.834;2023-01-29T03:30:21;23.63;;;13.55;;
75823;SDS011;64457;51.976;9.834;2023-01-29T03:33:13;26.65;;;13.45;;
75823;SDS011;64457;51.976;9.834;2023-01-29T03:35:45;27.92;;;14.52;;
75823;SDS011;64457;51.976;9.834;2023-01-29T03:38:17;26.58;;;14.38;;
75823;SDS011;64457;51.976;9.834;2023-01-29T03:40:47;26.88;;;13.63;;
75823;SDS011;64457;51.976;9.834;2023-01-29T03:43:21;21.70;;;11.70;;
75823;SDS011;64457;51.976;9.834;2023-01-29T03:45:59;24.67;;;13.60;;
75823;SDS011;64457;51.976;9.834;2023-01-29T03:48:34;25.45;;;12.88;;
75823;SDS011;64457;51.976;9.834;2023-01-29T03:51:11;26.40;;;14.02;;
75823;SDS011;64457;51.976;9.834;2023-01-29T03:53:48;26.73;;;14.10;;
75823;SDS011;64457;51.976;9.834;2023-01-29T03:56:25;26.70;;;14.38;;
75823;SDS011;64457;51.976;9.834;2023-01-29T03:59:04;26.40;;;13.98;;
75823;SDS011;64457;51.976;9.834;2023-01-29T04:01:43;27.70;;;13.48;;
75823;SDS011;64457;51.976;9.834;2023-01-29T04:04:17;24.48;;;13.00;;
75823;SDS011;64457;51.976;9.834;2023-01-29T04:06:50;27.92;;;13.75;;
75823;SDS011;64457;51.976;9.834;2023-01-29T04:09:22;29.52;;;15.07;;
75823;SDS011;64457;51.976;9.834;2023-01-29T04:11:58;30.15;;;13.07;;
75823;SDS011;64457;51.976;9.834;2023-01-29T04:14:33;28.48;;;14.13;;
75823;SDS011;64457;51.976;9.834;2023-01-29T04:17:02;24.95;;;12.90;;
75823;SDS011;64457;51.976;9.834;2023-01-29T04:19:38;25.40;;;14.02;;
75823;SDS011;64457;51.976;9.834;2023-01-29T04:22:08;24.20;;;12.82;;
75823;SDS011;64457;51.976;9.834;2023-01-29T04:24:41;24.90;;;13.63;;
75823;SDS011;64457;51.976;9.834;2023-01-29T04:27:14;26.63;;;13.85;;
75823;SDS011;64457;51.976;9.834;2023-01-29T04:29:56;27.08;;;14.15;;
75823;SDS011;64457;51.976;9.834;2023-01-29T04:32:39;29.00;;;14.90;;
75823;SDS011;64457;51.976;9.834;2023-01-29T04:35:25;28.58;;;15.38;;
75823;SDS011;64457;51.976;9.834;2023-01-29T04:38:02;28.02;;;14.15;;
75823;SDS011;64457;51.976;9.834;2023-01-29T04:40:41;26.35;;;13.80;;
75823;SDS011;64457;51.976;9.834;2023-01-29T04:43:19;27.92;;;14.23;;
75823;SDS011;64457;51.976;9.834;2023-01-29T04:45:56;28.95;;;15.50;;
75823;SDS011;64457;51.976;9.834;2023-01-29T04:48:37;31.25;;;15.10;;
75823;SDS011;64457;51.976;9.834;2023-01-29T04:51:21;26.58;;;14.30;;
75823;SDS011;64457;51.976;9.834;2023-01-29T04:53:58;27.85;;;13.80;;
75823;SDS011;64457;51.976;9.834;2023-01-29T04:56:33;24.38;;;13.63;;
75823;SDS011;64457;51.976;9.834;2023-01-29T04:59:08;26.92;;;13.75;;
75823;SDS011;64457;51.976;9.834;2023-01-29T05:01:40;29.02;;;14.93;;
75823;SDS011;64457;51.976;9.834;2023-01-29T05:04:09;28.75;;;14.43;;
75823;SDS011;64457;51.976;9.834;2023-01-29T05:06:42;26.95;;;14.23;;
75823;SDS011;64457;51.976;9.834;2023-01-29T05:09:11;29.63;;;14.60;;
75823;SDS011;64457;51.976;9.834;2023-01-29T05:11:40;30.98;;;16.08;;
75823;SDS011;64457;51.976;9.834;2023-01-29T05:14:10;31.58;;;15.43;;
75823;SDS011;64457;51.976;9.834;2023-01-29T05:16:41;28.02;;;14.38;;
75823;SDS011;64457;51.976;9.834;2023-01-29T05:19:12;30.92;;;15.32;;
75823;SDS011;64457;51.976;9.834;2023-01-29T05:21:43;30.58;;;14.98;;
75823;SDS011;64457;51.976;9.834;2023-01-29T05:24:14;27.33;;;14.85;;
75823;SDS011;64457;51.976;9.834;2023-01-29T05:26:45;27.80;;;14.57;;
75823;SDS011;64457;51.976;9.834;2023-01-29T05:29:32;29.58;;;14.98;;
75823;SDS011;64457;51.976;9.834;2023-01-29T05:32:00;27.15;;;14.13;;
75823;SDS011;64457;51.976;9.834;2023-01-29T05:34:28;26.60;;;13.90;;
75823;SDS011;64457;51.976;9.834;2023-01-29T05:36:58;30.85;;;15.35;;
75823;SDS011;64457;51.976;9.834;2023-01-29T05:39:25;27.60;;;15.10;;
75823;SDS011;64457;51.976;9.834;2023-01-29T05:41:53;26.30;;;14.45;;
75823;SDS011;64457;51.976;9.834;2023-01-29T05:44:26;29.80;;;14.57;;
75823;SDS011;64457;51.976;9.834;2023-01-29T05:46:54;29.38;;;15.75;;
75823;SDS011;64457;51.976;9.834;2023-01-29T05:49:21;29.98;;;15.93;;
75823;SDS011;64457;51.976;9.834;2023-01-29T05:51:49;29.67;;;15.07;;
75823;SDS011;64457;51.976;9.834;2023-01-29T05:54:18;27.90;;;14.50;;
75823;SDS011;64457;51.976;9.834;2023-01-29T05:56:46;30.52;;;15.75;;
75823;SDS011;64457;51.976;9.834;2023-01-29T05:59:13;34.63;;;17.27;;
75823;SDS011;64457;51.976;9.834;2023-01-29T06:01:41;31.08;;;15.65;;
75823;SDS011;64457;51.976;9.834;2023-01-29T06:04:09;33.53;;;14.47;;
75823;SDS011;64457;51.976;9.834;2023-01-29T06:06:36;33.00;;;15.80;;
75823;SDS011;64457;51.976;9.834;2023-01-29T06:09:04;31.07;;;15.77;;
75823;SDS011;64457;51.976;9.834;2023-01-29T06:11:33;31.42;;;16.05;;
75823;SDS011;64457;51.976;9.834;2023-01-29T06:14:00;31.20;;;15.98;;
75823;SDS011;64457;51.976;9.834;2023-01-29T06:16:28;31.10;;;16.10;;
75823;SDS011;64457;51.976;9.834;2023-01-29T06:18:55;34.92;;;16.20;;
75823;SDS011;64457;51.976;9.834;2023-01-29T06:21:23;30.60;;;15.00;;
75823;SDS011;64457;51.976;9.834;2023-01-29T06:23:51;30.42;;;14.82;;
75823;SDS011;64457;51.976;9.834;2023-01-29T06:26:18;31.90;;;15.50;;
75823;SDS011;64457;51.976;9.834;2023-01-29T06:28:48;33.40;;;17.05;;
75823;SDS011;64457;51.976;9.834;2023-01-29T06:31:16;29.35;;;16.08;;
75823;SDS011;64457;51.976;9.834;2023-01-29T06:33:44;32.03;;;15.23;;
75823;SDS011;64457;51.976;9.834;2023-01-29T06:36:11;30.38;;;15.65;;
75823;SDS011;64457;51.976;9.834;2023-01-29T06:38:39;31.47;;;15.57;;
75823;SDS011;64457;51.976;9.834;2023-01-29T06:41:07;39.45;;;15.27;;
75823;SDS011;64457;51.976;9.834;2023-01-29T06:43:36;27.45;;;13.95;;
75823;SDS011;64457;51.976;9.834;2023-01-29T06:46:05;33.60;;;15.93;;
75823;SDS011;64457;51.976;9.834;2023-01-29T06:48:34;30.15;;;14.90;;
75823;SDS011;64457;51.976;9.834;2023-01-29T06:51:02;31.67;;;16.07;;
75823;SDS011;64457;51.976;9.834;2023-01-29T06:53:32;30.80;;;15.20;;
75823;SDS011;64457;51.976;9.834;2023-01-29T06:56:00;28.73;;;14.67;;
75823;SDS011;64457;51.976;9.834;2023-01-29T06:58:28;35.37;;;16.60;;
75823;SDS011;64457;51.976;9.834;2023-01-29T07:01:01;30.13;;;14.53;;
75823;SDS011;64457;51.976;9.834;2023-01-29T07:03:31;26.00;;;13.10;;
75823;SDS011;64457;51.976;9.834;2023-01-29T07:05:59;28.87;;;15.40;;
75823;SDS011;64457;51.976;9.834;2023-01-29T07:08:27;27.33;;;14.43;;
75823;SDS011;64457;51.976;9.834;2023-01-29T07:10:57;32.42;;;16.13;;
75823;SDS011;64457;51.976;9.834;2023-01-29T07:13:25;29.20;;;14.43;;
75823;SDS011;64457;51.976;9.834;2023-01-29T07:15:53;28.47;;;15.10;;
75823;SDS011;64457;51.976;9.834;2023-01-29T07:18:23;29.90;;;14.87;;
75823;SDS011;64457;51.976;9.834;2023-01-29T07:20:52;31.10;;;13.97;;
75823;SDS011;64457;51.976;9.834;2023-01-29T07:23:20;33.30;;;14.97;;
75823;SDS011;64457;51.976;9.834;2023-01-29T07:25:48;32.97;;;16.50;;
75823;SDS011;64457;51.976;9.834;2023-01-29T07:28:16;34.10;;;16.00;;
75823;SDS011;64457;51.976;9.834;2023-01-29T07:30:44;32.20;;;16.07;;
75823;SDS011;64457;51.976;9.834;2023-01-29T07:33:12;31.80;;;15.70;;
75823;SDS011;64457;51.976;9.834;2023-01-29T07:35:40;34.57;;;16.50;;
75823;SDS011;64457;51.976;9.834;2023-01-29T07:38:10;31.33;;;15.33;;
75823;SDS011;64457;51.976;9.834;2023-01-29T07:40:38;32.27;;;16.00;;
75823;SDS011;64457;51.976;9.834;2023-01-29T07:43:06;28.43;;;14.13;;
75823;SDS011;64457;51.976;9.834;2023-01-29T07:45:35;34.30;;;16.50;;
75823;SDS011;64457;51.976;9.834;2023-01-29T07:48:05;30.27;;;14.80;;
75823;SDS011;64457;51.976;9.834;2023-01-29T07:50:35;30.60;;;15.70;;
75823;SDS011;64457;51.976;9.834;2023-01-29T07:53:03;34.20;;;16.10;;
75823;SDS011;64457;51.976;9.834;2023-01-29T07:55:32;39.30;;;17.37;;
75823;SDS011;64457;51.976;9.834;2023-01-29T07:58:00;31.90;;;15.70;;
75823;SDS011;64457;51.976;9.834;2023-01-29T08:00:30;30.50;;;15.23;;
75823;SDS011;64457;51.976;9.834;2023-01-29T08:03:01;33.50;;;16.07;;
75823;SDS011;64457;51.976;9.834;2023-01-29T08:05:29;32.87;;;16.10;;
75823;SDS011;64457;51.976;9.834;2023-01-29T08:07:58;33.97;;;16.67;;
75823;SDS011;64457;51.976;9.834;2023-01-29T08:10:26;34.00;;;16.47;;
75823;SDS011;64457;51.976;9.834;2023-01-29T08:12:56;33.30;;;16.33;;
75823;SDS011;64457;51.976;9.834;2023-01-29T08:15:26;38.73;;;18.33;;
75823;SDS011;64457;51.976;9.834;2023-01-29T08:17:54;33.50;;;16.47;;
75823;SDS011;64457;51.976;9.834;2023-01-29T08:20:22;35.07;;;15.93;;
75823;SDS011;64457;51.976;9.834;2023-01-29T08:22:56;37.67;;;16.30;;
75823;SDS011;64457;51.976;9.834;2023-01-29T08:25:27;37.07;;;16.83;;
75823;SDS011;64457;51.976;9.834;2023-01-29T08:27:56;36.77;;;16.33;;
75823;SDS011;64457;51.976;9.834;2023-01-29T08:30:24;32.57;;;15.90;;
75823;SDS011;64457;51.976;9.834;2023-01-29T08:32:52;41.37;;;16.77;;
75823;SDS011;64457;51.976;9.834;2023-01-29T08:35:20;35.00;;;16.90;;
75823;SDS011;64457;51.976;9.834;2023-01-29T08:37:51;37.33;;;16.03;;
75823;SDS011;64457;51.976;9.834;2023-01-29T08:40:20;35.07;;;18.03;;
75823;SDS011;64457;51.976;9.834;2023-01-29T08:42:47;36.97;;;17.37;;
75823;SDS011;64457;51.976;9.834;2023-01-29T08:45:17;37.10;;;15.80;;
75823;SDS011;64457;51.976;9.834;2023-01-29T08:47:44;40.77;;;17.37;;
75823;SDS011;64457;51.976;9.834;2023-01-29T08:50:14;37.53;;;16.70;;
75823;SDS011;64457;51.976;9.834;2023-01-29T08:52:42;36.13;;;17.13;;
75823;SDS011;64457;51.976;9.834;2023-01-29T08:55:10;39.33;;;17.60;;
75823;SDS011;64457;51.976;9.834;2023-01-29T08:57:38;35.20;;;16.60;;
75823;SDS011;64457;51.976;9.834;2023-01-29T09:00:06;39.07;;;18.83;;
75823;SDS011;64457;51.976;9.834;2023-01-29T09:02:37;39.93;;;18.63;;
75823;SDS011;64457;51.976;9.834;2023-01-29T09:05:05;36.13;;;17.87;;
75823;SDS011;64457;51.976;9.834;2023-01-29T09:07:34;36.33;;;18.80;;
75823;SDS011;64457;51.976;9.834;2023-01-29T09:10:01;36.03;;;17.50;;
75823;SDS011;64457;51.976;9.834;2023-01-29T09:12:30;39.23;;;20.17;;
75823;SDS011;64457;51.976;9.834;2023-01-29T09:14:58;40.13;;;17.87;;
75823;SDS011;64457;51.976;9.834;2023-01-29T09:17:25;36.43;;;18.27;;
75823;SDS011;64457;51.976;9.834;2023-01-29T09:19:54;40.63;;;19.30;;
75823;SDS011;64457;51.976;9.834;2023-01-29T09:22:22;40.53;;;19.83;;
75823;SDS011;64457;51.976;9.834;2023-01-29T09:24:50;43.63;;;18.73;;
75823;SDS011;64457;51.976;9.834;2023-01-29T09:27:17;43.27;;;18.60;;
75823;SDS011;64457;51.976;9.834;2023-01-29T09:29:45;40.00;;;19.27;;
75823;SDS011;64457;51.976;9.834;2023-01-29T09:32:13;38.87;;;19.13;;
75823;SDS011;64457;51.976;9.834;2023-01-29T09:34:40;43.90;;;19.87;;
75823;SDS011;64457;51.976;9.834;2023-01-29T09:37:09;40.03;;;19.47;;
75823;SDS011;64457;51.976;9.834;2023-01-29T09:39:37;60.53;;;28.37;;
75823;SDS011;64457;51.976;9.834;2023-01-29T09:42:06;40.70;;;19.80;;
75823;SDS011;64457;51.976;9.834;2023-01-29T09:44:45;40.00;;;19.57;;
75823;SDS011;64457;51.976;9.834;2023-01-29T09:47:20;36.53;;;16.80;;
75823;SDS011;64457;51.976;9.834;2023-01-29T09:49:54;34.70;;;17.33;;
75823;SDS011;64457;51.976;9.834;2023-01-29T09:52:26;34.07;;;17.27;;
75823;SDS011;64457;51.976;9.834;2023-01-29T09:54:59;34.77;;;17.13;;
75823;SDS011;64457;51.976;9.834;2023-01-29T09:57:33;37.30;;;18.33;;
75823;SDS011;64457;51.976;9.834;2023-01-29T10:00:12;37.37;;;18.90;;
75823;SDS011;64457;51.976;9.834;2023-01-29T10:05:50;37.93;;;18.60;;
75823;SDS011;64457;51.976;9.834;2023-01-29T10:08:45;33.57;;;16.27;;
75823;SDS011;64457;51.976;9.834;2023-01-29T10:11:59;34.90;;;17.77;;
75823;SDS011;64457;51.976;9.834;2023-01-29T10:14:42;36.10;;;18.10;;
75823;SDS011;64457;51.976;9.834;2023-01-29T10:17:23;38.53;;;18.27;;
75823;SDS011;64457;51.976;9.834;2023-01-29T10:20:22;36.10;;;16.90;;
75823;SDS011;64457;51.976;9.834;2023-01-29T10:23:12;36.90;;;16.53;;
75823;SDS011;64457;51.976;9.834;2023-01-29T10:25:49;36.47;;;17.60;;
75823;SDS011;64457;51.976;9.834;2023-01-29T10:28:18;36.20;;;15.67;;
75823;SDS011;64457;51.976;9.834;2023-01-29T10:30:53;31.90;;;15.67;;
75823;SDS011;64457;51.976;9.834;2023-01-29T10:33:26;33.50;;;15.90;;
75823;SDS011;64457;51.976;9.834;2023-01-29T10:36:03;29.70;;;14.67;;
75823;SDS011;64457;51.976;9.834;2023-01-29T10:38:39;35.43;;;16.80;;
75823;SDS011;64457;51.976;9.834;2023-01-29T10:41:16;36.67;;;16.40;;
75823;SDS011;64457;51.976;9.834;2023-01-29T10:43:59;31.23;;;14.90;;
75823;SDS011;64457;51.976;9.834;2023-01-29T10:46:42;33.50;;;16.20;;
75823;SDS011;64457;51.976;9.834;2023-01-29T10:49:28;33.63;;;16.13;;
75823;SDS011;64457;51.976;9.834;2023-01-29T10:52:17;30.47;;;15.43;;
75823;SDS011;64457;51.976;9.834;2023-01-29T10:55:03;42.63;;;14.93;;
75823;SDS011;64457;51.976;9.834;2023-01-29T10:57:51;27.70;;;14.23;;
75823;SDS011;64457;51.976;9.834;2023-01-29T11:00:27;27.53;;;13.97;;
75823;SDS011;64457;51.976;9.834;2023-01-29T11:03:07;35.90;;;17.70;;
75823;SDS011;64457;51.976;9.834;2023-01-29T11:05:43;40.93;;;13.90;;
75823;SDS011;64457;51.976;9.834;2023-01-29T11:08:18;25.23;;;13.27;;
75823;SDS011;64457;51.976;9.834;2023-01-29T11:10:52;27.20;;;12.10;;
75823;SDS011;64457;51.976;9.834;2023-01-29T11:13:30;24.60;;;12.40;;
75823;SDS011;64457;51.976;9.834;2023-01-29T11:16:04;24.93;;;13.33;;
75823;SDS011;64457;51.976;9.834;2023-01-29T11:18:51;25.97;;;13.17;;
75823;SDS011;64457;51.976;9.834;2023-01-29T11:21:21;23.63;;;11.93;;
75823;SDS011;64457;51.976;9.834;2023-01-29T11:23:50;34.73;;;12.97;;
75823;SDS011;64457;51.976;9.834;2023-01-29T11:26:33;23.40;;;12.33;;
75823;SDS011;64457;51.976;9.834;2023-01-29T11:29:08;28.90;;;13.93;;
75823;SDS011;64457;51.976;9.834;2023-01-29T11:32:04;23.30;;;11.40;;
75823;SDS011;64457;51.976;9.834;2023-01-29T11:34:34;22.70;;;11.83;;
75823;SDS011;64457;51.976;9.834;2023-01-29T11:37:24;22.40;;;11.77;;
75823;SDS011;64457;51.976;9.834;2023-01-29T11:40:00;22.77;;;11.80;;
75823;SDS011;64457;51.976;9.834;2023-01-29T11:42:38;23.23;;;11.63;;
75823;SDS011;64457;51.976;9.834;2023-01-29T11:45:11;52.47;;;24.57;;
75823;SDS011;64457;51.976;9.834;2023-01-29T11:47:52;23.03;;;11.17;;
75823;SDS011;64457;51.976;9.834;2023-01-29T11:50:22;22.93;;;11.53;;
75823;SDS011;64457;51.976;9.834;2023-01-29T11:52:53;21.57;;;10.27;;
75823;SDS011;64457;51.976;9.834;2023-01-29T11:55:21;23.60;;;10.77;;
75823;SDS011;64457;51.976;9.834;2023-01-29T11:57:58;18.10;;;9.73;;
75823;SDS011;64457;51.976;9.834;2023-01-29T12:00:32;20.83;;;10.57;;
75823;SDS011;64457;51.976;9.834;2023-01-29T12:03:03;23.70;;;12.30;;
75823;SDS011;64457;51.976;9.834;2023-01-29T12:05:39;22.70;;;10.80;;
75823;SDS011;64457;51.976;9.834;2023-01-29T12:08:13;25.10;;;11.47;;
75823;SDS011;64457;51.976;9.834;2023-01-29T12:10:43;22.60;;;10.87;;
75823;SDS011;64457;51.976;9.834;2023-01-29T12:13:17;20.30;;;9.80;;
75823;SDS011;64457;51.976;9.834;2023-01-29T12:16:07;17.60;;;10.37;;
75823;SDS011;64457;51.976;9.834;2023-01-29T12:18:49;18.57;;;10.27;;
75823;SDS011;64457;51.976;9.834;2023-01-29T12:21:24;23.27;;;11.77;;
75823;SDS011;64457;51.976;9.834;2023-01-29T12:24:02;17.83;;;10.03;;
75823;SDS011;64457;51.976;9.834;2023-01-29T12:26:38;19.67;;;10.00;;
75823;SDS011;64457;51.976;9.834;2023-01-29T12:29:20;23.63;;;10.20;;
75823;SDS011;64457;51.976;9.834;2023-01-29T12:32:00;19.90;;;10.27;;
75823;SDS011;64457;51.976;9.834;2023-01-29T12:34:36;19.33;;;10.23;;
75823;SDS011;64457;51.976;9.834;2023-01-29T12:37:12;19.60;;;9.07;;
75823;SDS011;64457;51.976;9.834;2023-01-29T12:39:47;20.27;;;10.63;;
75823;SDS011;64457;51.976;9.834;2023-01-29T12:42:16;20.03;;;9.90;;
75823;SDS011;64457;51.976;9.834;2023-01-29T12:44:47;18.83;;;9.57;;
75823;SDS011;64457;51.976;9.834;2023-01-29T12:47:22;18.87;;;9.97;;
75823;SDS011;64457;51.976;9.834;2023-01-29T12:49:54;18.47;;;9.47;;
75823;SDS011;64457;51.976;9.834;2023-01-29T12:52:27;22.07;;;11.10;;
75823;SDS011;64457;51.976;9.834;2023-01-29T12:55:05;18.93;;;9.77;;
75823;SDS011;64457;51.976;9.834;2023-01-29T12:57:41;16.50;;;9.13;;
75823;SDS011;64457;51.976;9.834;2023-01-29T13:00:15;20.60;;;10.00;;
75823;SDS011;64457;51.976;9.834;2023-01-29T13:02:48;18.30;;;9.27;;
75823;SDS011;64457;51.976;9.834;2023-01-29T13:05:22;17.97;;;10.17;;
75823;SDS011;64457;51.976;9.834;2023-01-29T13:07:56;16.77;;;9.13;;
75823;SDS011;64457;51.976;9.834;2023-01-29T13:10:28;17.13;;;9.10;;
75823;SDS011;64457;51.976;9.834;2023-01-29T13:13:04;19.20;;;10.37;;
75823;SDS011;64457;51.976;9.834;2023-01-29T13:15:40;19.40;;;9.80;;
75823;SDS011;64457;51.976;9.834;2023-01-29T13:18:30;20.30;;;9.40;;
75823;SDS011;64457;51.976;9.834;2023-01-29T13:21:08;19.07;;;9.20;;
75823;SDS011;64457;51.976;9.834;2023-01-29T13:23:41;15.30;;;8.53;;
75823;SDS011;64457;51.976;9.834;2023-01-29T13:26:13;18.27;;;8.90;;
75823;SDS011;64457;51.976;9.834;2023-01-29T13:28:44;18.97;;;8.57;;
75823;SDS011;64457;51.976;9.834;2023-01-29T13:31:13;16.67;;;8.90;;
75823;SDS011;64457;51.976;9.834;2023-01-29T13:33:54;19.03;;;10.17;;
75823;SDS011;64457;51.976;9.834;2023-01-29T13:36:28;15.53;;;8.63;;
75823;SDS011;64457;51.976;9.834;2023-01-29T13:38:59;17.70;;;9.30;;
75823;SDS011;64457;51.976;9.834;2023-01-29T13:41:30;16.97;;;7.40;;
75823;SDS011;64457;51.976;9.834;2023-01-29T13:44:06;19.43;;;8.00;;
75823;SDS011;64457;51.976;9.834;2023-01-29T13:46:47;17.50;;;8.93;;
75823;SDS011;64457;51.976;9.834;2023-01-29T13:49:23;14.80;;;7.80;;
75823;SDS011;64457;51.976;9.834;2023-01-29T13:51:57;15.37;;;7.80;;
75823;SDS011;64457;51.976;9.834;2023-01-29T13:54:40;18.13;;;8.97;;
75823;SDS011;64457;51.976;9.834;2023-01-29T14:06:49;14.90;;;7.83;;
75823;SDS011;64457;51.976;9.834;2023-01-29T14:12:43;13.97;;;7.43;;
75823;SDS011;64457;51.976;9.834;2023-01-29T14:15:20;13.00;;;6.73;;
75823;SDS011;64457;51.976;9.834;2023-01-29T14:18:04;14.00;;;7.50;;
75823;SDS011;64457;51.976;9.834;2023-01-29T14:20:49;18.30;;;7.30;;
75823;SDS011;64457;51.976;9.834;2023-01-29T14:23:28;14.50;;;7.83;;
75823;SDS011;64457;51.976;9.834;2023-01-29T14:26:05;14.23;;;7.30;;
75823;SDS011;64457;51.976;9.834;2023-01-29T14:28:51;16.67;;;8.20;;
75823;SDS011;64457;51.976;9.834;2023-01-29T14:31:41;18.53;;;8.40;;
75823;SDS011;64457;51.976;9.834;2023-01-29T14:34:22;13.47;;;7.40;;
75823;SDS011;64457;51.976;9.834;2023-01-29T14:36:54;14.87;;;7.97;;
75823;SDS011;64457;51.976;9.834;2023-01-29T14:39:29;18.20;;;8.37;;
75823;SDS011;64457;51.976;9.834;2023-01-29T14:42:02;14.73;;;8.50;;
75823;SDS011;64457;51.976;9.834;2023-01-29T14:44:46;13.40;;;7.43;;
75823;SDS011;64457;51.976;9.834;2023-01-29T14:47:51;15.37;;;7.83;;
75823;SDS011;64457;51.976;9.834;2023-01-29T14:53:21;25.97;;;8.40;;
75823;SDS011;64457;51.976;9.834;2023-01-29T14:55:59;15.43;;;8.00;;
75823;SDS011;64457;51.976;9.834;2023-01-29T14:58:32;15.07;;;7.90;;
75823;SDS011;64457;51.976;9.834;2023-01-29T15:01:05;15.87;;;8.20;;
75823;SDS011;64457;51.976;9.834;2023-01-29T15:03:43;19.60;;;9.20;;
75823;SDS011;64457;51.976;9.834;2023-01-29T15:06:18;14.30;;;7.97;;
75823;SDS011;64457;51.976;9.834;2023-01-29T15:08:54;19.47;;;9.80;;
75823;SDS011;64457;51.976;9.834;2023-01-29T15:11:34;18.23;;;9.40;;
75823;SDS011;64457;51.976;9.834;2023-01-29T15:14:21;23.03;;;11.70;;
75823;SDS011;64457;51.976;9.834;2023-01-29T15:17:01;14.63;;;8.17;;
75823;SDS011;64457;51.976;9.834;2023-01-29T15:19:43;17.03;;;9.03;;
75823;SDS011;64457;51.976;9.834;2023-01-29T15:22:13;13.47;;;7.73;;
75823;SDS011;64457;51.976;9.834;2023-01-29T15:24:42;14.73;;;8.10;;